createdAt,value
2022-11-29T00:01:40.636Z,18.00
2022-11-29T00:04:08.325Z,17.38
2022-11-29T00:06:36.274Z,19.48
2022-11-29T00:09:08.682Z,17.38
2022-11-29T00:11:58.296Z,18.33
2022-11-29T00:14:27.629Z,19.60
2022-11-29T00:17:01.923Z,20.70
2022-11-29T00:19:31.846Z,17.98
2022-11-29T00:22:00.522Z,19.45
2022-11-29T00:24:28.103Z,18.70
2022-11-29T00:27:03.560Z,18.70
2022-11-29T00:29:34.904Z,20.25
2022-11-29T00:32:14.932Z,18.75
2022-11-29T00:34:44.900Z,19.88
2022-11-29T00:37:17.991Z,19.50
2022-11-29T00:40:30.387Z,20.13
2022-11-29T00:44:06.525Z,20.02
2022-11-29T00:47:34.561Z,19.58
2022-11-29T00:58:21.500Z,19.23
2022-11-29T01:00:50.242Z,21.33
2022-11-29T01:03:17.748Z,22.67
2022-11-29T01:05:45.595Z,20.55
2022-11-29T01:08:14.267Z,21.73
2022-11-29T01:10:42.255Z,20.63
2022-11-29T01:13:10.835Z,21.02
2022-11-29T01:15:38.622Z,20.50
2022-11-29T01:18:05.822Z,21.20
2022-11-29T01:20:33.654Z,21.17
2022-11-29T01:23:00.850Z,23.58
2022-11-29T01:25:28.324Z,21.10
2022-11-29T01:27:55.568Z,20.63
2022-11-29T01:30:22.889Z,22.48
2022-11-29T01:32:53.052Z,20.08
2022-11-29T01:35:20.531Z,22.75
2022-11-29T01:37:47.648Z,22.45
2022-11-29T01:40:15.053Z,22.15
2022-11-29T01:49:49.569Z,20.73
2022-11-29T01:52:28.351Z,21.88
2022-11-29T01:55:42.253Z,22.58
2022-11-29T02:01:24.580Z,21.55
2022-11-29T02:04:06.918Z,22.60
2022-11-29T02:06:36.551Z,23.45
2022-11-29T02:09:19.268Z,22.88
2022-11-29T02:12:34.443Z,24.02
2022-11-29T02:15:37.921Z,22.38
2022-11-29T02:18:14.763Z,22.67
2022-11-29T02:21:12.499Z,22.50
2022-11-29T02:24:03.971Z,23.00
2022-11-29T02:27:10.643Z,23.60
2022-11-29T02:30:12.479Z,22.92
2022-11-29T02:42:10.698Z,21.50
2022-11-29T02:45:04.931Z,24.52
2022-11-29T02:47:54.722Z,23.77
2022-11-29T02:50:52.419Z,23.42
2022-11-29T02:54:04.060Z,24.67
2022-11-29T02:57:00.068Z,24.27
2022-11-29T03:00:01.880Z,25.95
2022-11-29T03:02:48.260Z,25.20
2022-11-29T03:05:52.300Z,25.83
2022-11-29T03:09:10.654Z,24.58
2022-11-29T03:12:11.329Z,25.08
2022-11-29T03:14:52.397Z,24.33
2022-11-29T03:18:02.567Z,25.92
2022-11-29T03:21:00.228Z,24.90
2022-11-29T03:23:50.104Z,24.60
2022-11-29T03:27:12.446Z,25.23
2022-11-29T03:29:53.102Z,23.92
2022-11-29T03:32:53.045Z,26.60
2022-11-29T03:35:37.846Z,26.90
2022-11-29T03:38:44.415Z,25.83
2022-11-29T03:41:43.816Z,27.25
2022-11-29T03:44:20.136Z,26.58
2022-11-29T03:46:56.906Z,25.13
2022-11-29T03:49:34.165Z,27.70
2022-11-29T03:52:46.190Z,26.13
2022-11-29T03:55:33.236Z,26.55
2022-11-29T03:58:39.076Z,25.92
2022-11-29T04:01:39.883Z,26.40
2022-11-29T04:04:52.237Z,26.08
2022-11-29T04:07:37.842Z,23.85
2022-11-29T04:10:44.693Z,25.13
2022-11-29T04:14:15.257Z,24.92
2022-11-29T04:17:46.137Z,25.92
2022-11-29T04:21:12.743Z,24.83
2022-11-29T04:24:21.553Z,23.10
2022-11-29T04:27:07.530Z,24.60
2022-11-29T04:30:22.748Z,24.85
2022-11-29T04:33:03.839Z,24.25
2022-11-29T04:36:03.223Z,24.67
2022-11-29T04:39:05.074Z,24.77
2022-11-29T04:46:57.469Z,24.65
2022-11-29T04:58:07.119Z,23.80
2022-11-29T05:00:49.800Z,21.77
2022-11-29T05:03:37.470Z,23.33
2022-11-29T05:07:01.455Z,25.48
2022-11-29T05:10:03.187Z,24.00
2022-11-29T05:12:52.730Z,22.33
2022-11-29T05:15:38.279Z,23.67
2022-11-29T05:18:20.280Z,22.52
2022-11-29T05:21:44.914Z,23.15
2022-11-29T05:24:46.583Z,24.88
2022-11-29T05:27:48.528Z,23.10
2022-11-29T05:30:22.649Z,21.98
2022-11-29T05:33:23.242Z,22.48
2022-11-29T05:36:18.808Z,22.55
2022-11-29T05:39:30.985Z,23.40
2022-11-29T05:42:25.716Z,21.33
2022-11-29T05:45:27.544Z,23.15
2022-11-29T05:48:13.621Z,20.80
2022-11-29T05:50:51.157Z,21.23
2022-11-29T05:53:37.139Z,22.45
2022-11-29T05:56:26.181Z,22.35
2022-11-29T05:59:11.168Z,22.85
2022-11-29T06:01:51.598Z,22.52
2022-11-29T06:05:07.126Z,22.27
2022-11-29T06:08:00.060Z,21.25
2022-11-29T06:11:28.172Z,19.90
2022-11-29T06:14:49.406Z,19.80
2022-11-29T06:17:52.329Z,19.17
2022-11-29T06:20:50.637Z,19.48
2022-11-29T06:23:41.421Z,19.83
2022-11-29T06:26:36.844Z,18.30
2022-11-29T06:29:26.949Z,19.25
2022-11-29T06:32:19.402Z,18.95
2022-11-29T06:37:45.437Z,18.60
2022-11-29T06:40:16.573Z,19.30
2022-11-29T06:42:44.198Z,20.40
2022-11-29T06:45:15.466Z,19.48
2022-11-29T06:48:06.644Z,21.63
2022-11-29T06:51:21.561Z,21.08
2022-11-29T06:54:07.820Z,21.00
2022-11-29T06:57:20.197Z,19.13
2022-11-29T06:59:58.025Z,20.40
2022-11-29T07:02:45.217Z,19.90
2022-11-29T07:23:34.374Z,21.52
2022-11-29T07:26:32.211Z,21.15
2022-11-29T07:29:47.557Z,18.45
2022-11-29T07:32:26.248Z,19.67
2022-11-29T07:35:20.214Z,19.60
2022-11-29T07:38:46.229Z,16.75
2022-11-29T07:41:57.361Z,18.73
2022-11-29T07:45:23.793Z,18.08
2022-11-29T07:47:53.640Z,18.98
2022-11-29T07:50:57.165Z,19.00
2022-11-29T07:53:47.431Z,17.75
2022-11-29T07:56:35.996Z,18.83
2022-11-29T07:59:22.412Z,17.02
2022-11-29T08:02:01.268Z,19.42
2022-11-29T08:04:49.784Z,17.83
2022-11-29T08:07:20.270Z,17.10
2022-11-29T08:09:57.188Z,17.83
2022-11-29T08:12:32.371Z,18.40
2022-11-29T08:15:02.213Z,19.25
2022-11-29T08:21:44.297Z,16.95
2022-11-29T08:24:14.899Z,17.30
2022-11-29T08:26:43.774Z,16.35
2022-11-29T08:29:11.308Z,17.10
2022-11-29T08:31:45.825Z,16.02
2022-11-29T08:34:31.886Z,15.70
2022-11-29T08:37:11.706Z,14.73
2022-11-29T08:39:39.385Z,15.70
2022-11-29T08:42:17.287Z,16.58
2022-11-29T08:44:45.743Z,16.30
2022-11-29T08:47:35.538Z,17.15
2022-11-29T08:50:30.210Z,16.27
2022-11-29T08:53:21.964Z,16.52
2022-11-29T08:55:51.041Z,15.38
2022-11-29T08:58:43.543Z,15.82
2022-11-29T09:01:24.212Z,14.63
2022-11-29T09:04:02.955Z,13.40
2022-11-29T09:07:21.404Z,13.85
2022-11-29T09:09:52.796Z,13.32
2022-11-29T09:12:20.156Z,13.50
2022-11-29T09:14:47.320Z,13.40
2022-11-29T09:17:14.623Z,12.73
2022-11-29T09:19:41.734Z,13.00
2022-11-29T09:22:09.101Z,13.77
2022-11-29T09:24:36.551Z,13.27
2022-11-29T09:27:05.071Z,13.82
2022-11-29T09:29:32.482Z,12.82
2022-11-29T09:32:20.998Z,13.55
2022-11-29T09:34:48.471Z,13.02
2022-11-29T09:37:15.716Z,13.70
2022-11-29T09:39:43.172Z,13.88
2022-11-29T09:42:52.931Z,12.52
2022-11-29T09:45:31.983Z,13.35
2022-11-29T09:48:11.615Z,12.27
2022-11-29T09:51:23.605Z,14.18
2022-11-29T09:54:17.817Z,12.07
2022-11-29T09:56:51.601Z,11.38
2022-11-29T09:59:45.114Z,11.90
2022-11-29T10:02:29.482Z,12.77
2022-11-29T10:05:08.618Z,13.20
2022-11-29T10:07:46.614Z,11.85
2022-11-29T10:10:43.200Z,11.90
2022-11-29T10:13:21.482Z,12.27
2022-11-29T10:15:55.097Z,12.23
2022-11-29T10:18:45.343Z,13.30
2022-11-29T10:21:22.424Z,12.20
2022-11-29T10:23:57.723Z,11.70
2022-11-29T10:26:29.290Z,12.93
2022-11-29T10:28:59.797Z,11.90
2022-11-29T10:31:42.836Z,12.43
2022-11-29T10:34:25.759Z,11.20
2022-11-29T10:36:59.682Z,12.02
2022-11-29T10:39:53.182Z,12.73
2022-11-29T10:42:52.013Z,11.93
2022-11-29T10:45:34.142Z,11.75
2022-11-29T10:48:19.280Z,12.73
2022-11-29T10:50:54.140Z,12.70
2022-11-29T10:53:37.471Z,12.70
2022-11-29T10:56:45.336Z,12.02
2022-11-29T10:59:27.356Z,12.52
2022-11-29T11:01:57.628Z,12.60
2022-11-29T11:04:43.163Z,12.75
2022-11-29T11:07:56.898Z,12.55
2022-11-29T11:10:53.048Z,13.07
2022-11-29T11:13:26.730Z,14.00
2022-11-29T11:16:02.112Z,14.00
2022-11-29T11:18:38.491Z,13.43
2022-11-29T11:21:20.868Z,13.85
2022-11-29T11:24:07.167Z,13.98
2022-11-29T11:27:09.036Z,15.02
2022-11-29T11:30:23.989Z,13.90
2022-11-29T11:33:46.481Z,14.18
2022-11-29T11:36:27.312Z,13.43
2022-11-29T11:39:11.149Z,13.80
2022-11-29T11:42:02.425Z,13.95
2022-11-29T11:44:47.444Z,14.15
2022-11-29T11:47:24.343Z,15.07
2022-11-29T11:50:02.481Z,14.98
2022-11-29T11:52:50.027Z,13.85
2022-11-29T11:55:47.006Z,13.88
2022-11-29T11:58:14.359Z,13.98
2022-11-29T12:04:58.960Z,13.40
2022-11-29T12:08:07.922Z,14.70
2022-11-29T12:10:40.548Z,13.02
2022-11-29T12:13:27.365Z,15.98
2022-11-29T12:16:00.680Z,13.75
2022-11-29T12:18:45.022Z,13.80
2022-11-29T12:21:24.419Z,14.10
2022-11-29T12:24:42.265Z,14.32
2022-11-29T12:27:14.972Z,14.50
2022-11-29T12:29:42.369Z,14.05
2022-11-29T12:32:40.373Z,14.32
2022-11-29T12:35:51.349Z,14.18
2022-11-29T12:38:46.488Z,15.18
2022-11-29T12:41:31.335Z,13.73
2022-11-29T12:44:15.689Z,14.95
2022-11-29T12:47:35.048Z,14.77
2022-11-29T12:50:31.342Z,16.95
2022-11-29T12:53:42.416Z,15.13
2022-11-29T12:56:32.561Z,15.38
2022-11-29T12:59:33.777Z,14.93
2022-11-29T13:02:27.860Z,16.13
2022-11-29T13:05:12.654Z,16.55
2022-11-29T13:07:53.431Z,17.17
2022-11-29T13:10:56.923Z,17.02
2022-11-29T13:13:44.283Z,16.25
2022-11-29T13:17:04.083Z,17.13
2022-11-29T13:19:49.703Z,15.20
2022-11-29T13:22:51.367Z,15.48
2022-11-29T13:25:30.219Z,16.27
2022-11-29T13:28:11.214Z,16.67
2022-11-29T13:30:40.138Z,17.15
2022-11-29T13:33:53.967Z,16.35
2022-11-29T13:36:49.393Z,17.13
2022-11-29T13:39:46.504Z,16.73
2022-11-29T13:42:19.701Z,18.05
2022-11-29T13:45:13.208Z,17.20
2022-11-29T13:47:57.782Z,17.00
2022-11-29T13:50:44.864Z,16.15
2022-11-29T13:53:48.521Z,19.88
2022-11-29T13:56:33.442Z,17.90
2022-11-29T13:59:07.058Z,19.20
2022-11-29T14:01:54.014Z,19.30
2022-11-29T14:04:39.317Z,19.85
2022-11-29T14:07:20.897Z,19.38
2022-11-29T14:10:28.524Z,19.45
2022-11-29T14:12:59.852Z,20.27
2022-11-29T14:15:32.220Z,20.65
2022-11-29T14:20:45.385Z,18.48
2022-11-29T14:23:14.072Z,20.45
2022-11-29T14:25:59.953Z,21.17
2022-11-29T14:28:40.661Z,20.55
2022-11-29T14:31:10.646Z,20.23
2022-11-29T14:33:46.323Z,19.58
2022-11-29T14:36:20.217Z,18.48
2022-11-29T14:39:04.257Z,17.88
2022-11-29T14:42:01.739Z,22.17
2022-11-29T14:44:33.460Z,20.13
2022-11-29T14:47:24.308Z,20.35
2022-11-29T14:49:55.491Z,19.40
2022-11-29T14:52:32.473Z,18.63
2022-11-29T14:55:28.699Z,19.88
2022-11-29T14:58:04.125Z,19.58
2022-11-29T15:00:42.912Z,18.83
2022-11-29T15:03:16.445Z,19.63
2022-11-29T15:05:50.767Z,19.02
2022-11-29T15:08:27.248Z,19.83
2022-11-29T15:11:16.609Z,18.23
2022-11-29T15:14:07.480Z,18.55
2022-11-29T15:17:04.650Z,19.35
2022-11-29T15:20:03.091Z,17.63
2022-11-29T15:22:55.303Z,18.65
2022-11-29T15:25:26.585Z,19.42
2022-11-29T15:27:57.349Z,19.15
2022-11-29T15:30:38.388Z,19.58
2022-11-29T15:33:24.705Z,18.58
2022-11-29T15:35:56.708Z,19.55
2022-11-29T15:38:24.591Z,19.35
2022-11-29T15:40:54.573Z,19.88
2022-11-29T15:43:32.955Z,20.63
2022-11-29T15:51:38.293Z,19.77
2022-11-29T15:54:24.980Z,19.02
2022-11-29T15:57:02.074Z,20.08
2022-11-29T15:59:55.450Z,19.98
2022-11-29T16:03:26.517Z,18.35
2022-11-29T16:06:06.152Z,18.83
2022-11-29T16:09:04.909Z,19.37
2022-11-29T16:11:33.405Z,19.58
2022-11-29T16:14:28.490Z,19.75
2022-11-29T16:17:05.386Z,21.07
2022-11-29T16:19:37.947Z,22.50
2022-11-29T16:22:27.241Z,18.58
2022-11-29T16:24:58.620Z,19.35
2022-11-29T16:27:26.428Z,20.42
2022-11-29T16:29:57.528Z,21.80
2022-11-29T16:32:34.311Z,19.73
2022-11-29T16:35:19.043Z,21.30
2022-11-29T16:37:46.975Z,21.63
2022-11-29T16:40:30.174Z,21.88
2022-11-29T16:43:03.491Z,22.13
2022-11-29T16:45:35.998Z,22.13
2022-11-29T16:52:39.065Z,19.73
2022-11-29T16:55:07.175Z,22.40
2022-11-29T16:57:39.172Z,21.33
2022-11-29T17:00:18.673Z,22.45
2022-11-29T17:03:03.336Z,21.00
2022-11-29T17:05:31.014Z,21.75
2022-11-29T17:07:58.835Z,22.70
2022-11-29T17:10:26.582Z,23.00
2022-11-29T17:12:53.820Z,23.05
2022-11-29T17:15:23.209Z,22.95
2022-11-29T17:17:57.126Z,21.20
2022-11-29T17:20:24.599Z,21.73
2022-11-29T17:26:30.352Z,22.40
2022-11-29T17:28:57.980Z,20.90
2022-11-29T17:31:25.464Z,23.17
2022-11-29T17:33:53.293Z,22.50
2022-11-29T17:36:22.130Z,22.90
2022-11-29T17:38:49.922Z,25.08
2022-11-29T17:45:06.409Z,24.15
2022-11-29T17:54:03.013Z,24.15
2022-11-29T17:56:31.898Z,22.98
2022-11-29T17:59:04.927Z,22.88
2022-11-29T18:04:50.275Z,25.27
2022-11-29T18:11:49.928Z,24.33
2022-11-29T18:18:26.493Z,23.50
2022-11-29T18:22:58.007Z,23.17
2022-11-29T18:35:48.696Z,22.52
2022-11-29T18:38:59.641Z,22.83
2022-11-29T18:41:58.544Z,23.13
2022-11-29T18:45:09.425Z,22.00
2022-11-29T18:47:37.139Z,23.03
2022-11-29T18:50:05.456Z,22.40
2022-11-29T18:52:39.324Z,23.92
2022-11-29T18:55:19.697Z,23.17
2022-11-29T18:58:07.019Z,22.50
2022-11-29T19:01:10.139Z,23.20
2022-11-29T19:04:00.081Z,23.40
2022-11-29T19:07:23.378Z,22.70
2022-11-29T19:09:55.050Z,22.77
2022-11-29T19:12:26.416Z,24.02
2022-11-29T19:14:54.958Z,23.25
2022-11-29T19:17:31.103Z,23.63
2022-11-29T19:20:38.029Z,22.88
2022-11-29T19:23:07.113Z,21.48
2022-11-29T19:25:41.126Z,21.90
2022-11-29T19:28:28.351Z,22.58
2022-11-29T19:34:06.959Z,24.50
2022-11-29T19:36:54.786Z,23.25
2022-11-29T19:39:30.054Z,24.45
2022-11-29T19:41:58.308Z,24.38
2022-11-29T19:45:15.883Z,24.10
2022-11-29T19:47:42.076Z,23.63
2022-11-29T19:50:09.833Z,23.17
2022-11-29T19:52:37.492Z,25.35
2022-11-29T19:55:05.878Z,23.65
2022-11-29T19:57:40.656Z,26.48
2022-11-29T20:00:18.936Z,25.08
2022-11-29T20:02:57.399Z,23.88
2022-11-29T20:06:05.871Z,25.93
2022-11-29T20:08:36.825Z,25.92
2022-11-29T20:11:21.721Z,24.23
2022-11-29T20:14:01.316Z,25.42
2022-11-29T20:16:33.036Z,25.58
2022-11-29T20:19:05.439Z,25.42
2022-11-29T20:21:51.303Z,25.13
2022-11-29T20:24:19.654Z,26.88
2022-11-29T20:26:55.922Z,25.88
2022-11-29T20:29:30.922Z,24.77
2022-11-29T20:35:03.928Z,25.98
2022-11-29T20:38:13.710Z,26.17
2022-11-29T20:45:13.404Z,25.13
2022-11-29T20:48:11.785Z,25.65
2022-11-29T20:50:58.490Z,26.48
2022-11-29T20:53:47.971Z,26.10
2022-11-29T20:56:27.713Z,27.23
2022-11-29T20:59:40.031Z,25.05
2022-11-29T21:21:41.429Z,24.05
2022-11-29T21:24:53.988Z,26.50
2022-11-29T21:27:41.017Z,26.15
2022-11-29T21:30:26.595Z,25.23
2022-11-29T21:32:54.821Z,26.23
2022-11-29T21:35:34.065Z,27.00
2022-11-29T21:38:43.866Z,25.35
2022-11-29T21:45:56.444Z,26.80
2022-11-29T21:50:05.934Z,25.45
2022-11-29T22:01:58.122Z,23.90
2022-11-29T22:12:33.273Z,24.13
2022-11-29T22:21:41.022Z,24.20
2022-11-29T22:29:24.139Z,25.15
2022-11-29T22:36:44.451Z,22.55
2022-11-29T22:44:04.607Z,22.95
2022-11-29T22:46:24.359Z,25.20
2022-11-29T22:52:35.567Z,22.05
2022-11-29T22:55:04.979Z,23.00
2022-11-29T22:57:32.605Z,23.85
2022-11-29T23:00:00.075Z,22.65
2022-11-29T23:02:29.129Z,22.05
2022-11-29T23:04:56.534Z,24.02
2022-11-29T23:07:23.842Z,24.08
2022-11-29T23:09:51.294Z,25.20
2022-11-29T23:12:18.758Z,23.55
2022-11-29T23:14:48.248Z,23.15
2022-11-29T23:17:18.123Z,22.77
2022-11-29T23:19:45.508Z,23.75
2022-11-29T23:22:12.875Z,23.25
2022-11-29T23:24:42.454Z,23.92
2022-11-29T23:27:09.866Z,21.58
2022-11-29T23:29:37.136Z,22.05
2022-11-29T23:32:04.836Z,23.50
2022-11-29T23:34:31.956Z,25.67
2022-11-29T23:36:59.274Z,21.98
2022-11-29T23:39:26.616Z,21.92
2022-11-29T23:41:54.142Z,22.90
2022-11-29T23:44:21.586Z,22.23
2022-11-29T23:46:48.950Z,22.20
2022-11-29T23:49:16.218Z,23.35
2022-11-29T23:51:43.333Z,25.40
2022-11-29T23:54:25.742Z,21.73
2022-11-29T23:56:55.062Z,22.33
